sensor_id;sensor_type;location;lat;lon;timestamp;pressure;altitude;pressure_sealevel;temperature;humidity
20909;BME280;10614;53.198;6.570;2023-05-01T00:00:09;101980.03;;;11.99;69.75
20909;BME280;10614;53.198;6.570;2023-05-01T00:02:10;101977.47;;;11.96;70.59
20909;BME280;10614;53.198;6.570;2023-05-01T00:04:12;101982.84;;;11.93;70.61
20909;BME280;10614;53.198;6.570;2023-05-01T00:06:15;101971.47;;;11.89;70.33
20909;BME280;10614;53.198;6.570;2023-05-01T00:08:17;101971.66;;;11.81;70.48
20909;BME280;10614;53.198;6.570;2023-05-01T00:10:18;101972.75;;;11.74;70.84
20909;BME280;10614;53.198;6.570;2023-05-01T00:12:19;101964.94;;;11.71;71.06
20909;BME280;10614;53.198;6.570;2023-05-01T00:14:21;101964.00;;;11.72;72.15
20909;BME280;10614;53.198;6.570;2023-05-01T00:16:22;101964.94;;;11.71;72.07
20909;BME280;10614;53.198;6.570;2023-05-01T00:18:24;101964.94;;;11.71;71.52
20909;BME280;10614;53.198;6.570;2023-05-01T00:20:25;101957.91;;;11.70;71.04
20909;BME280;10614;53.198;6.570;2023-05-01T00:22:29;101959.69;;;11.70;71.52
20909;BME280;10614;53.198;6.570;2023-05-01T00:24:30;101955.31;;;11.69;70.98
20909;BME280;10614;53.198;6.570;2023-05-01T00:26:32;101952.81;;;11.64;72.09
20909;BME280;10614;53.198;6.570;2023-05-01T00:28:33;101957.28;;;11.60;71.04
20909;BME280;10614;53.198;6.570;2023-05-01T00:30:35;101949.44;;;11.59;71.18
20909;BME280;10614;53.198;6.570;2023-05-01T00:32:36;101947.72;;;11.56;71.19
20909;BME280;10614;53.198;6.570;2023-05-01T00:34:38;101946.03;;;11.54;71.25
20909;BME280;10614;53.198;6.570;2023-05-01T00:36:40;101949.59;;;11.53;71.70
20909;BME280;10614;53.198;6.570;2023-05-01T00:38:43;101945.19;;;11.52;71.11
20909;BME280;10614;53.198;6.570;2023-05-01T00:40:45;101940.00;;;11.50;71.33
20909;BME280;10614;53.198;6.570;2023-05-01T00:42:47;101947.94;;;11.49;72.24
20909;BME280;10614;53.198;6.570;2023-05-01T00:44:48;101941.81;;;11.47;72.14
20909;BME280;10614;53.198;6.570;2023-05-01T00:46:50;101946.25;;;11.45;72.38
20909;BME280;10614;53.198;6.570;2023-05-01T00:48:52;101934.03;;;11.42;72.00
20909;BME280;10614;53.198;6.570;2023-05-01T00:50:53;101939.38;;;11.40;72.03
20909;BME280;10614;53.198;6.570;2023-05-01T00:52:55;101937.72;;;11.36;72.26
20909;BME280;10614;53.198;6.570;2023-05-01T00:54:58;101932.56;;;11.32;73.53
20909;BME280;10614;53.198;6.570;2023-05-01T00:57:00;101933.47;;;11.31;73.64
20909;BME280;10614;53.198;6.570;2023-05-01T00:59:02;101924.72;;;11.29;73.48
20909;BME280;10614;53.198;6.570;2023-05-01T01:01:04;101926.53;;;11.27;73.34
20909;BME280;10614;53.198;6.570;2023-05-01T01:03:07;101914.31;;;11.24;72.44
20909;BME280;10614;53.198;6.570;2023-05-01T01:05:09;101911.78;;;11.19;73.60
20909;BME280;10614;53.198;6.570;2023-05-01T01:07:14;101915.38;;;11.17;73.71
20909;BME280;10614;53.198;6.570;2023-05-01T01:09:22;101916.34;;;11.13;73.71
20909;BME280;10614;53.198;6.570;2023-05-01T01:11:32;101908.53;;;11.10;73.98
20909;BME280;10614;53.198;6.570;2023-05-01T01:13:35;101909.41;;;11.09;73.93
20909;BME280;10614;53.198;6.570;2023-05-01T01:15:41;101906.00;;;11.05;74.02
20909;BME280;10614;53.198;6.570;2023-05-01T01:17:46;101903.41;;;11.02;73.64
20909;BME280;10614;53.198;6.570;2023-05-01T01:20:01;101897.31;;;11.00;74.11
20909;BME280;10614;53.198;6.570;2023-05-01T01:22:06;101894.75;;;10.98;73.68
20909;BME280;10614;53.198;6.570;2023-05-01T01:24:27;101894.78;;;10.97;74.42
20909;BME280;10614;53.198;6.570;2023-05-01T01:26:38;101891.31;;;10.95;74.50
20909;BME280;10614;53.198;6.570;2023-05-01T01:28:50;101887.91;;;10.91;73.76
20909;BME280;10614;53.198;6.570;2023-05-01T01:33:21;101883.59;;;10.87;73.75
20909;BME280;10614;53.198;6.570;2023-05-01T01:35:27;101879.28;;;10.85;74.67
20909;BME280;10614;53.198;6.570;2023-05-01T01:37:31;101874.97;;;10.82;74.90
20909;BME280;10614;53.198;6.570;2023-05-01T01:39:37;101873.22;;;10.81;74.83
20909;BME280;10614;53.198;6.570;2023-05-01T01:41:44;101871.50;;;10.78;73.88
20909;BME280;10614;53.198;6.570;2023-05-01T01:43:52;101873.31;;;10.76;74.03
20909;BME280;10614;53.198;6.570;2023-05-01T01:45:57;101867.28;;;10.73;74.88
20909;BME280;10614;53.198;6.570;2023-05-01T01:47:59;101863.91;;;10.68;75.75
20909;BME280;10614;53.198;6.570;2023-05-01T01:50:03;101871.84;;;10.65;76.01
20909;BME280;10614;53.198;6.570;2023-05-01T01:52:08;101859.63;;;10.62;74.86
20909;BME280;10614;53.198;6.570;2023-05-01T01:54:12;101857.94;;;10.60;75.28
20909;BME280;10614;53.198;6.570;2023-05-01T01:56:15;101855.31;;;10.58;75.47
20909;BME280;10614;53.198;6.570;2023-05-01T01:58:18;101851.88;;;10.56;76.15
20909;BME280;10614;53.198;6.570;2023-05-01T02:00:25;101851.06;;;10.54;75.48
20909;BME280;10614;53.198;6.570;2023-05-01T02:02:27;101847.59;;;10.52;76.29
20909;BME280;10614;53.198;6.570;2023-05-01T02:04:29;101838.88;;;10.50;76.13
20909;BME280;10614;53.198;6.570;2023-05-01T02:06:31;101839.81;;;10.47;76.64
20909;BME280;10614;53.198;6.570;2023-05-01T02:08:36;101839.81;;;10.47;76.32
20909;BME280;10614;53.198;6.570;2023-05-01T02:10:38;101832.88;;;10.43;77.66
20909;BME280;10614;53.198;6.570;2023-05-01T02:12:40;101835.53;;;10.42;77.05
20909;BME280;10614;53.198;6.570;2023-05-01T02:14:42;101830.31;;;10.40;77.10
20909;BME280;10614;53.198;6.570;2023-05-01T02:16:45;101828.56;;;10.39;77.41
20909;BME280;10614;53.198;6.570;2023-05-01T02:18:47;101823.38;;;10.38;76.40
20909;BME280;10614;53.198;6.570;2023-05-01T02:20:50;101826.94;;;10.35;77.11
20909;BME280;10614;53.198;6.570;2023-05-01T02:22:52;101825.19;;;10.34;76.70
20909;BME280;10614;53.198;6.570;2023-05-01T02:24:55;101823.47;;;10.33;76.94
20909;BME280;10614;53.198;6.570;2023-05-01T02:26:59;101814.78;;;10.29;77.92
20909;BME280;10614;53.198;6.570;2023-05-01T02:29:03;101811.28;;;10.27;77.31
20909;BME280;10614;53.198;6.570;2023-05-01T02:31:06;101810.41;;;10.27;78.22
20909;BME280;10614;53.198;6.570;2023-05-01T02:33:08;101803.44;;;10.26;77.91
20909;BME280;10614;53.198;6.570;2023-05-01T02:35:09;101799.09;;;10.23;78.30
20909;BME280;10614;53.198;6.570;2023-05-01T02:37:11;101793.03;;;10.20;77.80
20909;BME280;10614;53.198;6.570;2023-05-01T02:39:13;101787.84;;;10.17;78.40
20909;BME280;10614;53.198;6.570;2023-05-01T02:41:16;101788.75;;;10.15;78.92
20909;BME280;10614;53.198;6.570;2023-05-01T02:43:20;101784.47;;;10.11;78.93
20909;BME280;10614;53.198;6.570;2023-05-01T02:45:22;101782.72;;;10.10;78.14
20909;BME280;10614;53.198;6.570;2023-05-01T02:47:26;101772.22;;;10.09;79.48
20909;BME280;10614;53.198;6.570;2023-05-01T02:49:27;101776.69;;;10.07;79.50
20909;BME280;10614;53.198;6.570;2023-05-01T02:51:30;101769.69;;;10.04;78.63
20909;BME280;10614;53.198;6.570;2023-05-01T02:53:32;101765.38;;;10.02;78.99
20909;BME280;10614;53.198;6.570;2023-05-01T02:55:34;101762.81;;;10.00;79.45
20909;BME280;10614;53.198;6.570;2023-05-01T02:57:37;101760.22;;;9.97;80.15
20909;BME280;10614;53.198;6.570;2023-05-01T02:59:38;101762.91;;;9.96;79.91
20909;BME280;10614;53.198;6.570;2023-05-01T03:01:40;101759.44;;;9.93;80.28
20909;BME280;10614;53.198;6.570;2023-05-01T03:03:41;101752.50;;;9.91;80.54
20909;BME280;10614;53.198;6.570;2023-05-01T03:05:43;101756.00;;;9.90;79.27
20909;BME280;10614;53.198;6.570;2023-05-01T03:07:44;101750.78;;;9.88;80.57
20909;BME280;10614;53.198;6.570;2023-05-01T03:09:46;101746.47;;;9.86;79.77
20909;BME280;10614;53.198;6.570;2023-05-01T03:11:48;101744.72;;;9.85;80.90
20909;BME280;10614;53.198;6.570;2023-05-01T03:13:50;101739.53;;;9.82;80.79
20909;BME280;10614;53.198;6.570;2023-05-01T03:15:52;101732.53;;;9.81;80.56
20909;BME280;10614;53.198;6.570;2023-05-01T03:17:54;101733.47;;;9.78;81.03
20909;BME280;10614;53.198;6.570;2023-05-01T03:19:55;101729.16;;;9.76;80.76
20909;BME280;10614;53.198;6.570;2023-05-01T03:21:56;101727.47;;;9.73;80.42
20909;BME280;10614;53.198;6.570;2023-05-01T03:23:58;101720.50;;;9.70;80.16
20909;BME280;10614;53.198;6.570;2023-05-01T03:25:59;101722.31;;;9.68;80.75
20909;BME280;10614;53.198;6.570;2023-05-01T03:28:01;101721.53;;;9.65;81.13
20909;BME280;10614;53.198;6.570;2023-05-01T03:30:05;101716.28;;;9.63;82.04
20909;BME280;10614;53.198;6.570;2023-05-01T03:32:07;101723.34;;;9.61;81.63
20909;BME280;10614;53.198;6.570;2023-05-01T03:34:09;101707.66;;;9.58;81.85
20909;BME280;10614;53.198;6.570;2023-05-01T03:36:10;101709.41;;;9.58;81.53
20909;BME280;10614;53.198;6.570;2023-05-01T03:38:12;101708.59;;;9.56;82.25
20909;BME280;10614;53.198;6.570;2023-05-01T03:40:13;101713.88;;;9.54;82.04
20909;BME280;10614;53.198;6.570;2023-05-01T03:42:16;101711.31;;;9.51;83.59
20909;BME280;10614;53.198;6.570;2023-05-01T03:44:17;101713.09;;;9.49;83.48
20909;BME280;10614;53.198;6.570;2023-05-01T03:46:20;101707.88;;;9.47;83.25
20909;BME280;10614;53.198;6.570;2023-05-01T03:48:23;101708.81;;;9.45;82.76
20909;BME280;10614;53.198;6.570;2023-05-01T03:50:24;101705.34;;;9.43;83.58
20909;BME280;10614;53.198;6.570;2023-05-01T03:52:26;101708.91;;;9.40;83.25
20909;BME280;10614;53.198;6.570;2023-05-01T03:54:28;101705.44;;;9.38;84.05
20909;BME280;10614;53.198;6.570;2023-05-01T03:56:29;101700.25;;;9.35;84.20
20909;BME280;10614;53.198;6.570;2023-05-01T03:58:34;101698.56;;;9.33;83.68
20909;BME280;10614;53.198;6.570;2023-05-01T04:00:36;101700.34;;;9.30;84.82
20909;BME280;10614;53.198;6.570;2023-05-01T04:02:38;101701.31;;;9.26;85.07
20909;BME280;10614;53.198;6.570;2023-05-01T04:04:40;101696.97;;;9.24;84.39
20909;BME280;10614;53.198;6.570;2023-05-01T04:06:42;101691.75;;;9.22;84.64
20909;BME280;10614;53.198;6.570;2023-05-01T04:08:43;101689.16;;;9.21;85.36
20909;BME280;10614;53.198;6.570;2023-05-01T04:10:45;101688.34;;;9.19;85.13
20909;BME280;10614;53.198;6.570;2023-05-01T04:12:46;101679.59;;;9.18;85.68
20909;BME280;10614;53.198;6.570;2023-05-01T04:14:48;101689.25;;;9.16;85.90
20909;BME280;10614;53.198;6.570;2023-05-01T04:16:49;101691.97;;;9.13;85.83
20909;BME280;10614;53.198;6.570;2023-05-01T04:18:52;101693.75;;;9.11;85.97
20909;BME280;10614;53.198;6.570;2023-05-01T04:20:54;101693.78;;;9.08;86.10
20909;BME280;10614;53.198;6.570;2023-05-01T04:22:55;101687.72;;;9.06;86.68
20909;BME280;10614;53.198;6.570;2023-05-01T04:24:57;101686.84;;;9.05;86.56
20909;BME280;10614;53.198;6.570;2023-05-01T04:26:58;101684.28;;;9.04;87.11
20909;BME280;10614;53.198;6.570;2023-05-01T04:29:00;101681.69;;;9.01;86.38
20909;BME280;10614;53.198;6.570;2023-05-01T04:31:01;101673.84;;;8.99;87.33
20909;BME280;10614;53.198;6.570;2023-05-01T04:33:03;101675.66;;;8.97;86.69
20909;BME280;10614;53.198;6.570;2023-05-01T04:35:11;101680.91;;;8.96;87.84
20909;BME280;10614;53.198;6.570;2023-05-01T04:37:13;101676.56;;;8.95;87.58
20909;BME280;10614;53.198;6.570;2023-05-01T04:39:16;101668.72;;;8.93;87.36
20909;BME280;10614;53.198;6.570;2023-05-01T04:41:18;101673.97;;;8.93;88.09
20909;BME280;10614;53.198;6.570;2023-05-01T04:43:20;101676.59;;;8.93;87.03
20909;BME280;10614;53.198;6.570;2023-05-01T04:45:22;101678.38;;;8.93;87.57
20909;BME280;10614;53.198;6.570;2023-05-01T04:47:23;101668.75;;;8.92;87.73
20909;BME280;10614;53.198;6.570;2023-05-01T04:49:25;101671.38;;;8.92;88.16
20909;BME280;10614;53.198;6.570;2023-05-01T04:51:27;101681.88;;;8.92;87.58
20909;BME280;10614;53.198;6.570;2023-05-01T04:53:29;101672.28;;;8.91;87.70
20909;BME280;10614;53.198;6.570;2023-05-01T04:55:31;101674.00;;;8.92;88.19
20909;BME280;10614;53.198;6.570;2023-05-01T04:57:32;101674.00;;;8.92;88.20
20909;BME280;10614;53.198;6.570;2023-05-01T04:59:34;101664.41;;;8.91;87.75
20909;BME280;10614;53.198;6.570;2023-05-01T05:01:35;101674.00;;;8.92;88.61
20909;BME280;10614;53.198;6.570;2023-05-01T05:03:37;101671.38;;;8.92;88.81
20909;BME280;10614;53.198;6.570;2023-05-01T05:05:38;101669.66;;;8.91;88.05
20909;BME280;10614;53.198;6.570;2023-05-01T05:07:41;101667.88;;;8.91;88.39
20909;BME280;10614;53.198;6.570;2023-05-01T05:09:42;101674.00;;;8.92;88.69
20909;BME280;10614;53.198;6.570;2023-05-01T05:11:44;101671.38;;;8.92;88.44
20909;BME280;10614;53.198;6.570;2023-05-01T05:13:45;101669.56;;;8.94;88.27
20909;BME280;10614;53.198;6.570;2023-05-01T05:15:47;101667.00;;;8.92;88.39
20909;BME280;10614;53.198;6.570;2023-05-01T05:17:48;101666.94;;;8.94;88.41
20909;BME280;10614;53.198;6.570;2023-05-01T05:19:50;101661.69;;;8.94;88.83
20909;BME280;10614;53.198;6.570;2023-05-01T05:21:51;101668.66;;;8.96;88.80
20909;BME280;10614;53.198;6.570;2023-05-01T05:23:54;101670.41;;;8.96;88.74
20909;BME280;10614;53.198;6.570;2023-05-01T05:25:56;101666.84;;;8.98;89.26
20909;BME280;10614;53.198;6.570;2023-05-01T05:27:59;101663.34;;;8.99;88.68
20909;BME280;10614;53.198;6.570;2023-05-01T05:30:01;101671.19;;;9.01;88.66
20909;BME280;10614;53.198;6.570;2023-05-01T05:32:02;101659.81;;;9.02;88.54
20909;BME280;10614;53.198;6.570;2023-05-01T05:34:04;101662.34;;;9.05;88.42
20909;BME280;10614;53.198;6.570;2023-05-01T05:36:05;101665.88;;;9.04;89.07
20909;BME280;10614;53.198;6.570;2023-05-01T05:38:07;101660.59;;;9.05;89.17
20909;BME280;10614;53.198;6.570;2023-05-01T05:40:10;101657.94;;;9.07;88.73
20909;BME280;10614;53.198;6.570;2023-05-01T05:42:12;101660.56;;;9.07;88.76
20909;BME280;10614;53.198;6.570;2023-05-01T05:44:13;101661.41;;;9.09;88.23
20909;BME280;10614;53.198;6.570;2023-05-01T05:46:15;101659.63;;;9.09;88.91
20909;BME280;10614;53.198;6.570;2023-05-01T05:48:16;101653.47;;;9.11;88.91
20909;BME280;10614;53.198;6.570;2023-05-01T05:50:18;101651.72;;;9.11;88.55
20909;BME280;10614;53.198;6.570;2023-05-01T05:52:19;101647.34;;;9.12;88.95
20909;BME280;10614;53.198;6.570;2023-05-01T05:54:21;101651.69;;;9.13;88.50
20909;BME280;10614;53.198;6.570;2023-05-01T05:56:24;101647.25;;;9.15;89.12
20909;BME280;10614;53.198;6.570;2023-05-01T05:58:26;101644.63;;;9.15;88.73
20909;BME280;10614;53.198;6.570;2023-05-01T06:00:27;101641.13;;;9.16;88.44
20909;BME280;10614;53.198;6.570;2023-05-01T06:02:29;101636.72;;;9.16;88.79
20909;BME280;10614;53.198;6.570;2023-05-01T06:04:30;101640.19;;;9.18;88.32
20909;BME280;10614;53.198;6.570;2023-05-01T06:06:32;101638.41;;;9.20;88.59
20909;BME280;10614;53.198;6.570;2023-05-01T06:08:34;101632.25;;;9.21;88.38
20909;BME280;10614;53.198;6.570;2023-05-01T06:10:36;101640.09;;;9.23;88.23
20909;BME280;10614;53.198;6.570;2023-05-01T06:12:40;101638.31;;;9.25;89.05
20909;BME280;10614;53.198;6.570;2023-05-01T06:14:41;101633.91;;;9.25;88.63
20909;BME280;10614;53.198;6.570;2023-05-01T06:16:43;101628.59;;;9.27;88.14
20909;BME280;10614;53.198;6.570;2023-05-01T06:18:45;101626.88;;;9.27;88.22
20909;BME280;10614;53.198;6.570;2023-05-01T06:20:47;101628.56;;;9.30;88.07
20909;BME280;10614;53.198;6.570;2023-05-01T06:22:48;101628.50;;;9.32;88.69
20909;BME280;10614;53.198;6.570;2023-05-01T06:24:50;101631.97;;;9.34;88.42
20909;BME280;10614;53.198;6.570;2023-05-01T06:26:51;101630.16;;;9.36;88.53
20909;BME280;10614;53.198;6.570;2023-05-01T06:28:55;101626.66;;;9.37;88.61
20909;BME280;10614;53.198;6.570;2023-05-01T06:30:56;101627.47;;;9.39;88.78
20909;BME280;10614;53.198;6.570;2023-05-01T06:32:58;101627.44;;;9.40;88.24
20909;BME280;10614;53.198;6.570;2023-05-01T06:34:59;101624.78;;;9.42;89.01
20909;BME280;10614;53.198;6.570;2023-05-01T06:37:01;101624.72;;;9.43;88.92
20909;BME280;10614;53.198;6.570;2023-05-01T06:39:04;101631.72;;;9.46;89.16
20909;BME280;10614;53.198;6.570;2023-05-01T06:41:05;101631.66;;;9.47;89.47
20909;BME280;10614;53.198;6.570;2023-05-01T06:43:07;101633.34;;;9.50;88.79
20909;BME280;10614;53.198;6.570;2023-05-01T06:45:10;101630.69;;;9.51;89.27
20909;BME280;10614;53.198;6.570;2023-05-01T06:47:11;101630.66;;;9.53;88.52
20909;BME280;10614;53.198;6.570;2023-05-01T06:49:13;101627.09;;;9.56;89.33
20909;BME280;10614;53.198;6.570;2023-05-01T06:51:14;101628.81;;;9.57;88.54
20909;BME280;10614;53.198;6.570;2023-05-01T06:53:16;101622.63;;;9.59;88.87
20909;BME280;10614;53.198;6.570;2023-05-01T06:55:17;101618.19;;;9.61;88.81
20909;BME280;10614;53.198;6.570;2023-05-01T06:57:19;101625.16;;;9.64;89.31
20909;BME280;10614;53.198;6.570;2023-05-01T06:59:21;101624.19;;;9.66;89.38
20909;BME280;10614;53.198;6.570;2023-05-01T07:01:25;101621.53;;;9.68;89.60
20909;BME280;10614;53.198;6.570;2023-05-01T07:03:27;101623.25;;;9.70;89.52
20909;BME280;10614;53.198;6.570;2023-05-01T07:05:29;101624.94;;;9.73;89.25
20909;BME280;10614;53.198;6.570;2023-05-01T07:07:30;101633.66;;;9.75;89.89
20909;BME280;10614;53.198;6.570;2023-05-01T07:09:32;101623.94;;;9.79;89.08
20909;BME280;10614;53.198;6.570;2023-05-01T07:11:34;101620.38;;;9.81;89.80
20909;BME280;10614;53.198;6.570;2023-05-01T07:13:35;101617.66;;;9.84;89.19
20909;BME280;10614;53.198;6.570;2023-05-01T07:15:37;101622.81;;;9.87;89.88
20909;BME280;10614;53.198;6.570;2023-05-01T07:17:40;101611.34;;;9.91;90.01
20909;BME280;10614;53.198;6.570;2023-05-01T07:19:41;101613.03;;;9.94;88.97
20909;BME280;10614;53.198;6.570;2023-05-01T07:21:43;101605.03;;;9.97;89.96
20909;BME280;10614;53.198;6.570;2023-05-01T07:23:44;101599.72;;;10.00;89.27
20909;BME280;10614;53.198;6.570;2023-05-01T07:25:46;101597.88;;;10.04;88.86
20909;BME280;10614;53.198;6.570;2023-05-01T07:27:47;101598.66;;;10.07;89.66
20909;BME280;10614;53.198;6.570;2023-05-01T07:29:49;101596.78;;;10.12;88.52
20909;BME280;10614;53.198;6.570;2023-05-01T07:31:50;101600.13;;;10.18;89.18
20909;BME280;10614;53.198;6.570;2023-05-01T07:33:53;101600.03;;;10.22;88.72
20909;BME280;10614;53.198;6.570;2023-05-01T07:35:55;101593.81;;;10.25;88.19
20909;BME280;10614;53.198;6.570;2023-05-01T07:37:57;101602.47;;;10.30;89.05
20909;BME280;10614;53.198;6.570;2023-05-01T07:39:58;101594.53;;;10.33;88.72
20909;BME280;10614;53.198;6.570;2023-05-01T07:42:00;101597.88;;;10.38;87.13
20909;BME280;10614;53.198;6.570;2023-05-01T07:44:01;101588.94;;;10.44;87.10
20909;BME280;10614;53.198;6.570;2023-05-01T07:46:03;101602.81;;;10.50;86.39
20909;BME280;10614;53.198;6.570;2023-05-01T07:48:05;101591.28;;;10.54;85.40
20909;BME280;10614;53.198;6.570;2023-05-01T07:50:09;101601.69;;;10.59;84.43
20909;BME280;10614;53.198;6.570;2023-05-01T07:52:11;101598.94;;;10.64;83.87
20909;BME280;10614;53.198;6.570;2023-05-01T07:54:14;101599.66;;;10.69;84.09
20909;BME280;10614;53.198;6.570;2023-05-01T07:56:16;101594.22;;;10.75;83.74
20909;BME280;10614;53.198;6.570;2023-05-01T07:58:17;101602.81;;;10.82;83.29
20909;BME280;10614;53.198;6.570;2023-05-01T08:00:19;101602.66;;;10.86;81.62
20909;BME280;10614;53.198;6.570;2023-05-01T08:02:21;101597.25;;;10.91;81.29
20909;BME280;10614;53.198;6.570;2023-05-01T08:04:22;101594.50;;;10.95;80.60
20909;BME280;10614;53.198;6.570;2023-05-01T08:06:25;101602.22;;;11.02;79.59
20909;BME280;10614;53.198;6.570;2023-05-01T08:08:27;101596.72;;;11.09;79.21
20909;BME280;10614;53.198;6.570;2023-05-01T08:10:28;101592.19;;;11.14;78.51
20909;BME280;10614;53.198;6.570;2023-05-01T08:12:30;101599.16;;;11.17;77.09
20909;BME280;10614;53.198;6.570;2023-05-01T08:14:31;101598.19;;;11.19;77.03
20909;BME280;10614;53.198;6.570;2023-05-01T08:16:33;101599.78;;;11.24;76.92
20909;BME280;10614;53.198;6.570;2023-05-01T08:18:35;101599.66;;;11.28;76.18
20909;BME280;10614;53.198;6.570;2023-05-01T08:20:36;101586.28;;;11.34;76.16
20909;BME280;10614;53.198;6.570;2023-05-01T08:22:39;101585.28;;;11.38;76.12
20909;BME280;10614;53.198;6.570;2023-05-01T08:24:41;101586.81;;;11.46;76.36
20909;BME280;10614;53.198;6.570;2023-05-01T08:26:43;101588.41;;;11.51;75.46
20909;BME280;10614;53.198;6.570;2023-05-01T08:28:44;101583.91;;;11.55;75.66
20909;BME280;10614;53.198;6.570;2023-05-01T08:30:46;101578.50;;;11.58;74.40
20909;BME280;10614;53.198;6.570;2023-05-01T08:32:49;101581.94;;;11.61;73.30
20909;BME280;10614;53.198;6.570;2023-05-01T08:34:50;101579.19;;;11.65;73.64
20909;BME280;10614;53.198;6.570;2023-05-01T08:36:52;101582.53;;;11.70;72.16
20909;BME280;10614;53.198;6.570;2023-05-01T08:38:55;101573.72;;;11.71;70.50
20909;BME280;10614;53.198;6.570;2023-05-01T08:40:56;101578.03;;;11.73;69.05
20909;BME280;10614;53.198;6.570;2023-05-01T08:43:00;101576.09;;;11.78;67.53
20909;BME280;10614;53.198;6.570;2023-05-01T08:45:02;101576.84;;;11.82;67.34
20909;BME280;10614;53.198;6.570;2023-05-01T08:47:06;101581.91;;;11.90;67.33
20909;BME280;10614;53.198;6.570;2023-05-01T08:49:11;101579.97;;;11.95;66.35
20909;BME280;10614;53.198;6.570;2023-05-01T08:51:14;101579.81;;;11.99;66.10
20909;BME280;10614;53.198;6.570;2023-05-01T08:53:19;101576.94;;;12.06;65.74
20909;BME280;10614;53.198;6.570;2023-05-01T08:55:22;101574.97;;;12.12;65.50
20909;BME280;10614;53.198;6.570;2023-05-01T08:57:26;101568.63;;;12.18;65.65
20909;BME280;10614;53.198;6.570;2023-05-01T08:59:28;101569.31;;;12.23;64.84
20909;BME280;10614;53.198;6.570;2023-05-01T09:01:31;101571.75;;;12.29;63.85
20909;BME280;10614;53.198;6.570;2023-05-01T09:03:33;101567.22;;;12.33;63.83
20909;BME280;10614;53.198;6.570;2023-05-01T09:05:35;101562.69;;;12.36;63.61
20909;BME280;10614;53.198;6.570;2023-05-01T09:07:37;101564.28;;;12.40;62.88
20909;BME280;10614;53.198;6.570;2023-05-01T09:09:39;101563.28;;;12.44;62.48
20909;BME280;10614;53.198;6.570;2023-05-01T09:11:43;101568.38;;;12.49;62.03
20909;BME280;10614;53.198;6.570;2023-05-01T09:13:45;101562.97;;;12.52;61.90
20909;BME280;10614;53.198;6.570;2023-05-01T09:15:46;101563.75;;;12.56;61.41
20909;BME280;10614;53.198;6.570;2023-05-01T09:17:48;101564.44;;;12.61;61.10
20909;BME280;10614;53.198;6.570;2023-05-01T09:19:50;101558.16;;;12.63;61.20
20909;BME280;10614;53.198;6.570;2023-05-01T09:21:52;101552.75;;;12.66;60.73
20909;BME280;10614;53.198;6.570;2023-05-01T09:23:54;101553.53;;;12.70;60.46
20909;BME280;10614;53.198;6.570;2023-05-01T09:25:55;101558.63;;;12.75;60.53
20909;BME280;10614;53.198;6.570;2023-05-01T09:27:59;101559.31;;;12.80;60.21
20909;BME280;10614;53.198;6.570;2023-05-01T09:30:03;101560.81;;;12.87;60.01
20909;BME280;10614;53.198;6.570;2023-05-01T09:32:12;101554.50;;;12.91;60.26
20909;BME280;10614;53.198;6.570;2023-05-01T09:34:14;101553.50;;;12.94;59.88
20909;BME280;10614;53.198;6.570;2023-05-01T09:36:15;101549.84;;;12.98;60.16
20909;BME280;10614;53.198;6.570;2023-05-01T09:38:18;101554.00;;;13.03;60.09
20909;BME280;10614;53.198;6.570;2023-05-01T09:40:19;101552.03;;;13.08;59.53
20909;BME280;10614;53.198;6.570;2023-05-01T09:42:27;101553.59;;;13.14;59.73
20909;BME280;10614;53.198;6.570;2023-05-01T09:44:29;101555.13;;;13.20;59.17
20909;BME280;10614;53.198;6.570;2023-05-01T09:46:39;101546.16;;;13.24;59.10
20909;BME280;10614;53.198;6.570;2023-05-01T09:48:43;101546.03;;;13.27;58.15
20909;BME280;10614;53.198;6.570;2023-05-01T09:50:51;101547.72;;;13.29;57.91
20909;BME280;10614;53.198;6.570;2023-05-01T09:52:53;101548.53;;;13.32;57.92
20909;BME280;10614;53.198;6.570;2023-05-01T09:57:11;101544.47;;;13.45;57.05
20909;BME280;10614;53.198;6.570;2023-05-01T09:59:13;101547.66;;;13.53;56.55
20909;BME280;10614;53.198;6.570;2023-05-01T10:01:16;101547.47;;;13.58;56.47
20909;BME280;10614;53.198;6.570;2023-05-01T10:03:18;101547.34;;;13.61;56.26
20909;BME280;10614;53.198;6.570;2023-05-01T10:05:20;101546.28;;;13.65;56.20
20909;BME280;10614;53.198;6.570;2023-05-01T10:07:22;101545.38;;;13.66;55.70
20909;BME280;10614;53.198;6.570;2023-05-01T10:09:26;101539.91;;;13.70;55.77
20909;BME280;10614;53.198;6.570;2023-05-01T10:11:28;101551.28;;;13.72;55.84
20909;BME280;10614;53.198;6.570;2023-05-01T10:13:30;101548.16;;;13.83;54.51
20909;BME280;10614;53.198;6.570;2023-05-01T10:15:35;101543.41;;;13.91;54.40
20909;BME280;10614;53.198;6.570;2023-05-01T10:17:38;101544.03;;;13.98;54.34
20909;BME280;10614;53.198;6.570;2023-05-01T10:19:40;101544.72;;;14.02;54.52
20909;BME280;10614;53.198;6.570;2023-05-01T10:21:41;101542.88;;;14.04;54.68
20909;BME280;10614;53.198;6.570;2023-05-01T10:23:43;101541.03;;;14.06;54.55
20909;BME280;10614;53.198;6.570;2023-05-01T10:25:44;101537.19;;;14.13;54.17
20909;BME280;10614;53.198;6.570;2023-05-01T10:27:47;101544.94;;;14.18;54.64
20909;BME280;10614;53.198;6.570;2023-05-01T10:29:52;101557.13;;;14.22;54.83
20909;BME280;10614;53.198;6.570;2023-05-01T10:31:53;101553.41;;;14.26;54.79
20909;BME280;10614;53.198;6.570;2023-05-01T10:33:57;101548.81;;;14.29;54.88
20909;BME280;10614;53.198;6.570;2023-05-01T10:35:59;101547.81;;;14.32;54.36
20909;BME280;10614;53.198;6.570;2023-05-01T10:38:03;101546.78;;;14.36;54.51
20909;BME280;10614;53.198;6.570;2023-05-01T10:42:25;101541.41;;;14.38;53.63
20909;BME280;10614;53.198;6.570;2023-05-01T10:44:28;101549.06;;;14.44;54.19
20909;BME280;10614;53.198;6.570;2023-05-01T10:46:30;101549.34;;;14.58;54.08
20909;BME280;10614;53.198;6.570;2023-05-01T10:51:08;101543.50;;;14.70;54.40
20909;BME280;10614;53.198;6.570;2023-05-01T10:53:17;101543.34;;;14.73;54.31